createdAt,value
2019-04-03T00:00:11.984Z,0.00
2019-04-03T00:01:12.041Z,0.00
2019-04-03T00:03:05.080Z,0.00
2019-04-03T00:04:05.083Z,0.00
2019-04-03T00:05:58.085Z,0.00
2019-04-03T00:06:58.125Z,0.00
2019-04-03T00:08:51.118Z,0.00
2019-04-03T00:09:51.276Z,0.00
2019-04-03T00:11:44.171Z,0.00
2019-04-03T00:12:44.225Z,0.00
2019-04-03T00:14:37.187Z,0.00
2019-04-03T00:15:37.244Z,0.00
2019-04-03T00:17:30.344Z,0.00
2019-04-03T00:18:30.501Z,0.00
2019-04-03T00:20:23.283Z,0.00
2019-04-03T00:21:23.359Z,0.00
2019-04-03T00:23:16.360Z,0.00
2019-04-03T00:24:16.402Z,0.00
2019-04-03T00:26:09.418Z,0.00
2019-04-03T00:27:09.436Z,0.00
2019-04-03T00:29:02.421Z,0.00
2019-04-03T00:30:02.642Z,0.00
2019-04-03T00:31:55.603Z,0.00
2019-04-03T00:32:55.695Z,0.00
2019-04-03T00:34:48.501Z,0.00
2019-04-03T00:35:48.563Z,0.00
2019-04-03T00:37:41.716Z,0.00
2019-04-03T00:38:41.613Z,0.00
2019-04-03T00:40:34.622Z,0.00
2019-04-03T00:41:34.654Z,0.00
2019-04-03T00:43:27.638Z,0.00
2019-04-03T00:44:27.696Z,0.00
2019-04-03T00:46:20.733Z,0.00
2019-04-03T00:47:20.736Z,0.00
2019-04-03T00:49:13.714Z,0.00
2019-04-03T00:50:13.774Z,0.00
2019-04-03T00:52:06.816Z,0.00
2019-04-03T00:53:06.833Z,0.00
2019-04-03T00:54:59.839Z,0.00
2019-04-03T00:56:00.252Z,0.00
2019-04-03T00:57:52.872Z,0.00
2019-04-03T00:58:53.724Z,0.00
2019-04-03T01:00:45.984Z,0.00
2019-04-03T01:01:45.950Z,0.00
2019-04-03T01:03:39.090Z,0.00
2019-04-03T01:04:38.999Z,0.00
2019-04-03T01:06:31.996Z,0.00
2019-04-03T01:07:32.030Z,0.00
2019-04-03T01:09:25.020Z,0.00
2019-04-03T01:10:25.064Z,0.00
2019-04-03T01:12:18.042Z,0.00
2019-04-03T01:13:18.112Z,0.00
2019-04-03T01:15:11.095Z,0.00
2019-04-03T01:16:11.157Z,0.00
2019-04-03T01:18:05.134Z,0.00
2019-04-03T01:19:05.739Z,0.00
2019-04-03T01:20:57.162Z,0.00
2019-04-03T01:21:57.221Z,0.00
2019-04-03T01:23:50.223Z,0.00
2019-04-03T01:24:50.266Z,0.00
2019-04-03T01:26:43.270Z,0.00
2019-04-03T01:27:43.310Z,0.00
2019-04-03T01:29:36.319Z,0.00
2019-04-03T01:30:36.349Z,0.00
2019-04-03T01:32:29.328Z,0.00
2019-04-03T01:33:29.391Z,0.00
2019-04-03T01:35:22.388Z,0.00
2019-04-03T01:36:22.624Z,0.00
2019-04-03T01:38:15.443Z,0.00
2019-04-03T01:39:15.502Z,0.00
2019-04-03T01:41:08.494Z,0.00
2019-04-03T01:42:08.535Z,0.00
2019-04-03T01:44:01.535Z,0.00
2019-04-03T01:45:01.596Z,0.00
2019-04-03T01:46:57.330Z,0.00
2019-04-03T01:47:57.434Z,0.00
2019-04-03T01:49:47.651Z,0.00
2019-04-03T01:50:47.680Z,0.00
2019-04-03T01:52:40.688Z,0.00
2019-04-03T01:53:40.796Z,0.00
2019-04-03T01:55:35.078Z,0.00
2019-04-03T01:56:35.668Z,0.00
2019-04-03T01:58:27.271Z,0.00
2019-04-03T01:59:27.354Z,0.00
2019-04-03T02:01:20.316Z,0.00
2019-04-03T02:02:20.503Z,0.00
2019-04-03T02:04:13.394Z,0.00
2019-04-03T02:05:13.394Z,0.00
2019-04-03T02:07:06.606Z,0.00
2019-04-03T02:08:06.437Z,0.00
2019-04-03T02:09:59.500Z,0.00
2019-04-03T02:10:59.676Z,0.00
2019-04-03T02:12:53.126Z,0.00
2019-04-03T02:13:53.153Z,0.00
2019-04-03T02:15:46.156Z,0.00
2019-04-03T02:16:46.187Z,0.00
2019-04-03T02:18:39.170Z,0.00
2019-04-03T02:19:39.344Z,0.00
2019-04-03T02:21:32.237Z,0.00
2019-04-03T02:22:32.274Z,0.00
2019-04-03T02:24:25.257Z,0.00
2019-04-03T02:25:25.316Z,0.00
2019-04-03T02:27:18.355Z,0.00
2019-04-03T02:28:18.385Z,0.00
2019-04-03T02:30:12.959Z,0.00
2019-04-03T02:31:11.421Z,0.00
2019-04-03T02:33:04.417Z,0.00
2019-04-03T02:34:04.475Z,0.00
2019-04-03T02:35:57.653Z,0.00
2019-04-03T02:36:57.621Z,0.00
2019-04-03T02:38:51.513Z,0.00
2019-04-03T02:39:50.546Z,0.00
2019-04-03T02:41:43.534Z,0.00
2019-04-03T02:42:43.573Z,0.00
2019-04-03T02:44:36.570Z,0.00
2019-04-03T02:45:36.642Z,0.00
2019-04-03T02:47:32.435Z,0.00
2019-04-03T02:48:29.665Z,0.00
2019-04-03T02:50:22.661Z,0.00
2019-04-03T02:51:22.698Z,0.00
2019-04-03T02:53:15.819Z,0.00
2019-04-03T02:54:15.749Z,0.00
2019-04-03T02:56:11.586Z,0.00
2019-04-03T02:57:08.809Z,0.00
2019-04-03T02:59:01.795Z,0.00
2019-04-03T03:00:01.915Z,0.00
2019-04-03T03:01:54.960Z,0.00
2019-04-03T03:02:54.997Z,0.00
2019-04-03T03:04:48.187Z,0.00
2019-04-03T03:05:47.930Z,0.00
2019-04-03T03:07:40.899Z,0.00
2019-04-03T03:08:42.484Z,0.00
2019-04-03T03:10:33.978Z,0.00
2019-04-03T03:11:33.996Z,0.00
2019-04-03T03:13:27.004Z,0.00
2019-04-03T03:14:27.039Z,0.00
2019-04-03T03:16:20.146Z,0.00
2019-04-03T03:17:22.487Z,0.00
2019-04-03T03:19:13.090Z,0.00
2019-04-03T03:20:13.363Z,0.00
2019-04-03T03:22:06.113Z,0.00
2019-04-03T03:23:06.339Z,0.00
2019-04-03T03:25:00.960Z,0.00
2019-04-03T03:25:59.223Z,0.00
2019-04-03T03:27:52.180Z,0.00
2019-04-03T03:28:52.222Z,0.00
2019-04-03T03:30:55.773Z,0.00
2019-04-03T03:32:05.476Z,0.00
2019-04-03T03:33:40.609Z,0.00
2019-04-03T03:34:55.029Z,0.00
2019-04-03T03:36:31.427Z,0.00
2019-04-03T03:37:34.186Z,0.00
2019-04-03T03:39:36.031Z,0.00
2019-04-03T03:40:36.152Z,0.00
2019-04-03T03:42:30.976Z,0.00
2019-04-03T03:43:29.127Z,0.00
2019-04-03T03:45:22.098Z,0.00
2019-04-03T03:46:26.470Z,0.00
2019-04-03T03:48:15.197Z,0.00
2019-04-03T03:49:17.209Z,0.00
2019-04-03T03:51:08.589Z,0.00
2019-04-03T03:52:08.243Z,0.00
2019-04-03T03:54:01.293Z,0.00
2019-04-03T03:55:04.373Z,0.00
2019-04-03T03:56:54.361Z,0.00
2019-04-03T03:57:54.401Z,0.00
2019-04-03T03:59:50.454Z,0.00
2019-04-03T04:00:51.767Z,0.00
2019-04-03T04:02:43.502Z,0.00
2019-04-03T04:03:41.707Z,0.00
2019-04-03T04:05:34.021Z,0.00
2019-04-03T04:06:35.876Z,0.00
2019-04-03T04:08:26.530Z,0.00
2019-04-03T04:09:26.573Z,0.00
2019-04-03T04:11:19.969Z,0.00
2019-04-03T04:12:19.672Z,0.00
2019-04-03T04:14:12.697Z,0.00
2019-04-03T04:15:12.731Z,0.00
2019-04-03T04:17:08.605Z,0.00
2019-04-03T04:18:06.069Z,0.00
2019-04-03T04:20:03.109Z,0.00
2019-04-03T04:20:58.828Z,0.00
2019-04-03T04:22:51.837Z,0.00
2019-04-03T04:23:53.168Z,0.00
2019-04-03T04:25:44.876Z,0.00
2019-04-03T04:26:44.893Z,0.00
2019-04-03T04:28:40.225Z,0.00
2019-04-03T04:29:38.035Z,0.00
2019-04-03T04:31:31.585Z,0.00
2019-04-03T04:32:31.198Z,0.00
2019-04-03T04:34:24.057Z,0.00
2019-04-03T04:35:24.141Z,0.00
2019-04-03T04:37:17.139Z,0.00
2019-04-03T04:38:17.373Z,0.00
2019-04-03T04:40:10.260Z,0.00
2019-04-03T04:41:10.333Z,0.00
2019-04-03T04:43:04.394Z,0.00
2019-04-03T04:44:03.398Z,0.00
2019-04-03T04:45:56.439Z,0.00
2019-04-03T04:46:56.353Z,0.00
2019-04-03T04:48:50.976Z,0.00
2019-04-03T04:49:49.365Z,0.00
2019-04-03T04:51:42.452Z,0.00
2019-04-03T04:52:42.416Z,0.00
2019-04-03T04:54:35.410Z,0.00
2019-04-03T04:55:35.981Z,0.00
2019-04-03T04:57:28.515Z,0.00
2019-04-03T04:58:28.509Z,0.00
2019-04-03T05:00:21.511Z,0.00
2019-04-03T05:01:21.551Z,0.00
2019-04-03T05:03:15.046Z,0.00
2019-04-03T05:04:15.957Z,0.00
2019-04-03T05:06:08.085Z,0.00
2019-04-03T05:07:08.206Z,0.00
2019-04-03T05:09:03.226Z,5.63
2019-04-03T05:10:01.171Z,5.63
2019-04-03T05:11:54.153Z,5.63
2019-04-03T05:12:54.212Z,5.63
2019-04-03T05:14:48.934Z,5.63
2019-04-03T05:15:47.339Z,5.63
2019-04-03T05:17:40.243Z,11.25
2019-04-03T05:18:40.299Z,11.25
2019-04-03T05:20:33.279Z,11.25
2019-04-03T05:21:33.317Z,11.25
2019-04-03T05:23:26.325Z,16.88
2019-04-03T05:24:26.917Z,16.88
2019-04-03T05:26:21.061Z,16.88
2019-04-03T05:27:19.399Z,22.50
2019-04-03T05:29:12.403Z,33.75
2019-04-03T05:30:12.509Z,33.75
2019-04-03T05:32:05.478Z,39.38
2019-04-03T05:33:05.502Z,39.38
2019-04-03T05:34:58.498Z,45.00
2019-04-03T05:35:58.543Z,50.63
2019-04-03T05:37:51.577Z,50.63
2019-04-03T05:38:53.547Z,50.63
2019-04-03T05:40:44.587Z,56.25
2019-04-03T05:41:44.627Z,61.88
2019-04-03T05:43:37.810Z,61.88
2019-04-03T05:44:37.662Z,61.88
2019-04-03T05:46:30.674Z,56.25
2019-04-03T05:47:30.720Z,61.88
2019-04-03T05:49:23.905Z,67.50
2019-04-03T05:50:24.355Z,73.13
2019-04-03T05:52:16.749Z,78.75
2019-04-03T05:53:16.783Z,78.75
2019-04-03T05:55:10.215Z,78.75
2019-04-03T05:56:11.617Z,78.75
2019-04-03T05:58:03.125Z,78.75
2019-04-03T05:59:03.146Z,78.75
2019-04-03T06:01:04.400Z,84.38
2019-04-03T06:01:55.890Z,84.38
2019-04-03T06:03:49.379Z,84.38
2019-04-03T06:04:49.451Z,84.38
2019-04-03T06:06:42.587Z,84.38
2019-04-03T06:07:42.483Z,84.38
2019-04-03T06:09:35.483Z,78.75
2019-04-03T06:10:37.357Z,84.38
2019-04-03T06:12:28.594Z,73.13
2019-04-03T06:13:28.555Z,67.50
2019-04-03T06:15:22.069Z,67.50
2019-04-03T06:16:23.431Z,67.50
2019-04-03T06:18:17.313Z,61.88
2019-04-03T06:19:14.642Z,61.88
2019-04-03T06:21:07.616Z,61.88
2019-04-03T06:22:09.843Z,61.88
2019-04-03T06:24:00.660Z,73.13
2019-04-03T06:25:00.701Z,73.13
2019-04-03T06:26:53.752Z,73.13
2019-04-03T06:27:53.748Z,73.13
2019-04-03T06:29:46.895Z,61.88
2019-04-03T06:30:46.774Z,61.88
2019-04-03T06:32:40.005Z,61.88
2019-04-03T06:33:40.034Z,61.88
2019-04-03T06:35:34.759Z,67.50
2019-04-03T06:36:32.863Z,61.88
2019-04-03T06:38:25.881Z,61.88
2019-04-03T06:39:30.367Z,67.50
2019-04-03T06:41:18.909Z,78.75
2019-04-03T06:42:18.946Z,78.75
2019-04-03T06:44:11.957Z,84.38
2019-04-03T06:45:14.948Z,78.75
2019-04-03T06:47:05.262Z,84.38
2019-04-03T06:48:05.575Z,84.38
2019-04-03T06:49:58.027Z,84.38
2019-04-03T06:50:58.225Z,84.38
2019-04-03T06:52:51.275Z,95.63
2019-04-03T06:53:51.110Z,101.25
2019-04-03T06:55:44.341Z,112.50
2019-04-03T06:56:44.143Z,118.13
2019-04-03T06:58:39.472Z,106.88
2019-04-03T06:59:37.193Z,95.63
2019-04-03T07:01:30.185Z,95.63
2019-04-03T07:02:32.262Z,106.88
2019-04-03T07:04:23.218Z,101.25
2019-04-03T07:05:23.267Z,90.00
2019-04-03T07:07:31.489Z,90.00
2019-04-03T07:08:28.628Z,90.00
2019-04-03T07:10:09.728Z,90.00
2019-04-03T07:11:09.354Z,95.63
2019-04-03T07:13:02.374Z,90.00
2019-04-03T07:14:02.645Z,95.63
2019-04-03T07:15:56.831Z,106.88
2019-04-03T07:16:55.645Z,106.88
2019-04-03T07:18:48.446Z,106.88
2019-04-03T07:19:48.568Z,101.25
2019-04-03T07:21:41.524Z,106.88
2019-04-03T07:22:41.550Z,112.50
2019-04-03T07:24:34.568Z,101.25
2019-04-03T07:25:34.976Z,95.63
2019-04-03T07:27:27.758Z,106.88
2019-04-03T07:28:30.184Z,118.13
2019-04-03T07:30:21.788Z,140.63
2019-04-03T07:31:23.175Z,146.25
2019-04-03T07:33:13.669Z,151.88
2019-04-03T07:34:13.717Z,157.50
2019-04-03T07:36:06.907Z,157.50
2019-04-03T07:37:06.771Z,146.25
2019-04-03T07:38:59.784Z,101.25
2019-04-03T07:40:00.112Z,78.75
2019-04-03T07:41:54.139Z,67.50
2019-04-03T07:42:55.638Z,73.13
2019-04-03T07:44:45.914Z,95.63
2019-04-03T07:45:45.897Z,112.50
2019-04-03T07:47:38.870Z,151.88
2019-04-03T07:48:38.928Z,168.75
2019-04-03T07:50:31.933Z,163.13
2019-04-03T07:51:31.972Z,174.38
2019-04-03T07:53:25.125Z,168.75
2019-04-03T07:54:26.709Z,123.75
2019-04-03T07:56:18.005Z,84.38
2019-04-03T07:57:18.052Z,78.75
2019-04-03T07:59:11.050Z,90.00
2019-04-03T08:00:11.139Z,101.25
2019-04-03T08:02:04.240Z,118.13
2019-04-03T08:03:04.138Z,129.38
2019-04-03T08:05:00.056Z,163.13
2019-04-03T08:05:57.274Z,185.63
2019-04-03T08:07:50.171Z,213.75
2019-04-03T08:08:52.809Z,219.38
2019-04-03T08:10:43.221Z,258.75
2019-04-03T08:11:43.327Z,270.00
2019-04-03T08:13:38.165Z,281.25
2019-04-03T08:14:36.308Z,275.63
2019-04-03T08:16:29.308Z,241.88
2019-04-03T08:17:29.345Z,230.63
2019-04-03T08:19:23.492Z,208.13
2019-04-03T08:20:24.014Z,191.25
2019-04-03T08:22:15.397Z,180.00
2019-04-03T08:23:15.473Z,168.75
2019-04-03T08:25:10.636Z,185.63
2019-04-03T08:26:11.270Z,202.50
2019-04-03T08:28:01.480Z,241.88
2019-04-03T08:29:02.273Z,253.13
2019-04-03T08:30:54.510Z,264.38
2019-04-03T08:31:54.795Z,270.00
2019-04-03T08:33:47.559Z,298.13
2019-04-03T08:34:47.604Z,320.63
2019-04-03T08:36:40.617Z,326.25
2019-04-03T08:37:42.031Z,309.38
2019-04-03T08:39:33.941Z,298.13
2019-04-03T08:40:33.692Z,298.13
2019-04-03T08:42:27.998Z,298.13
2019-04-03T08:43:26.730Z,292.50
2019-04-03T08:45:21.982Z,298.13
2019-04-03T08:46:19.774Z,303.75
2019-04-03T08:48:12.783Z,292.50
2019-04-03T08:49:12.910Z,270.00
2019-04-03T08:51:06.043Z,247.50
2019-04-03T08:52:06.194Z,241.88
2019-04-03T08:53:58.869Z,230.63
2019-04-03T08:54:58.907Z,236.25
2019-04-03T08:56:52.137Z,253.13
2019-04-03T08:57:52.853Z,275.63
2019-04-03T08:59:45.083Z,348.75
2019-04-03T09:00:45.144Z,399.38
2019-04-03T09:02:37.983Z,455.63
2019-04-03T09:03:38.037Z,472.50
2019-04-03T09:05:31.029Z,489.38
2019-04-03T09:06:31.073Z,500.63
2019-04-03T09:08:26.088Z,478.13
2019-04-03T09:09:24.112Z,450.00
2019-04-03T09:11:17.479Z,455.63
2019-04-03T09:12:17.490Z,461.25
2019-04-03T09:14:10.136Z,478.13
2019-04-03T09:15:10.194Z,478.13
2019-04-03T09:17:03.602Z,405.00
2019-04-03T09:18:05.572Z,348.75
2019-04-03T09:19:57.217Z,320.63
2019-04-03T09:20:56.290Z,348.75
2019-04-03T09:22:49.270Z,410.63
2019-04-03T09:23:49.325Z,416.25
2019-04-03T09:25:42.318Z,410.63
2019-04-03T09:26:42.366Z,399.38
2019-04-03T09:28:35.360Z,405.00
2019-04-03T09:29:35.411Z,427.50
2019-04-03T09:31:28.413Z,472.50
2019-04-03T09:32:28.451Z,466.88
2019-04-03T09:34:21.433Z,472.50
2019-04-03T09:35:21.491Z,495.00
2019-04-03T09:37:17.402Z,540.00
2019-04-03T09:38:14.538Z,573.75
2019-04-03T09:40:07.521Z,618.75
2019-04-03T09:41:07.622Z,624.38
2019-04-03T09:43:00.586Z,742.50
2019-04-03T09:44:00.629Z,838.13
2019-04-03T09:45:53.714Z,883.13
2019-04-03T09:46:53.666Z,871.88
2019-04-03T09:48:46.850Z,883.13
2019-04-03T09:49:46.704Z,877.50
2019-04-03T09:51:39.718Z,821.25
2019-04-03T09:52:47.664Z,821.25
2019-04-03T09:54:32.829Z,770.63
2019-04-03T09:55:35.895Z,759.38
2019-04-03T09:57:25.785Z,753.75
2019-04-03T09:58:25.845Z,748.13
2019-04-03T10:00:18.849Z,675.00
2019-04-03T10:01:19.119Z,624.38
2019-04-03T10:03:12.436Z,601.88
2019-04-03T10:04:12.449Z,624.38
2019-04-03T10:06:05.445Z,618.75
2019-04-03T10:07:05.482Z,573.75
2019-04-03T10:08:58.490Z,461.25
2019-04-03T10:09:58.525Z,399.38
2019-04-03T10:11:52.481Z,348.75
2019-04-03T10:12:53.636Z,354.38
2019-04-03T10:14:44.571Z,388.13
2019-04-03T10:15:44.710Z,382.50
2019-04-03T10:17:38.566Z,405.00
2019-04-03T10:18:39.040Z,416.25
2019-04-03T10:20:30.854Z,444.38
2019-04-03T10:21:33.102Z,450.00
2019-04-03T10:23:23.671Z,455.63
2019-04-03T10:24:23.728Z,450.00
2019-04-03T10:26:16.728Z,444.38
2019-04-03T10:27:16.765Z,450.00
2019-04-03T10:29:09.752Z,444.38
2019-04-03T10:30:09.813Z,450.00
2019-04-03T10:32:02.960Z,472.50
2019-04-03T10:33:03.112Z,489.38
2019-04-03T10:34:57.393Z,528.75
2019-04-03T10:35:55.895Z,545.63
2019-04-03T10:37:48.934Z,562.50
2019-04-03T10:38:49.579Z,562.50
2019-04-03T10:40:42.174Z,540.00
2019-04-03T10:41:42.018Z,528.75
2019-04-03T10:43:37.309Z,511.88
2019-04-03T10:44:35.311Z,506.25
2019-04-03T10:46:28.043Z,506.25
2019-04-03T10:47:40.024Z,528.75
2019-04-03T10:49:21.104Z,540.00
2019-04-03T10:50:21.143Z,540.00
2019-04-03T10:52:14.457Z,523.13
2019-04-03T10:53:14.437Z,528.75
2019-04-03T10:55:07.175Z,534.38
2019-04-03T10:56:07.932Z,540.00
2019-04-03T10:58:01.894Z,545.63
2019-04-03T10:59:10.368Z,523.13
2019-04-03T11:00:53.263Z,562.50
2019-04-03T11:01:53.328Z,596.25
2019-04-03T11:03:47.162Z,613.13
2019-04-03T11:04:46.861Z,607.50
2019-04-03T11:06:40.157Z,618.75
2019-04-03T11:07:40.189Z,613.13
2019-04-03T11:09:32.891Z,585.00
2019-04-03T11:10:33.134Z,579.38
2019-04-03T11:12:25.923Z,579.38
2019-04-03T11:13:25.976Z,551.25
2019-04-03T11:15:19.096Z,500.63
2019-04-03T11:16:19.013Z,506.25
2019-04-03T11:18:12.022Z,601.88
2019-04-03T11:19:12.276Z,646.88
2019-04-03T11:21:05.039Z,703.13
2019-04-03T11:22:05.137Z,725.63
2019-04-03T11:23:58.124Z,725.63
2019-04-03T11:24:58.155Z,736.88
2019-04-03T11:26:52.463Z,748.13
2019-04-03T11:27:51.179Z,742.50
2019-04-03T11:29:44.173Z,708.75
2019-04-03T11:30:44.222Z,703.13
2019-04-03T11:32:37.466Z,770.63
2019-04-03T11:33:37.768Z,725.63
2019-04-03T11:35:30.559Z,691.88
2019-04-03T11:36:31.155Z,675.00
2019-04-03T11:38:27.884Z,624.38
2019-04-03T11:39:23.346Z,635.63
2019-04-03T11:41:18.814Z,641.25
2019-04-03T11:42:23.577Z,596.25
2019-04-03T11:44:09.495Z,556.88
2019-04-03T11:45:09.452Z,556.88
2019-04-03T11:47:02.447Z,500.63
2019-04-03T11:48:02.578Z,466.88
2019-04-03T11:49:55.601Z,455.63
2019-04-03T11:50:56.598Z,461.25
2019-04-03T11:52:51.274Z,472.50
2019-04-03T11:53:49.002Z,489.38
2019-04-03T11:55:42.030Z,613.13
2019-04-03T11:56:43.154Z,714.38
2019-04-03T11:58:34.632Z,781.88
2019-04-03T11:59:34.785Z,759.38
2019-04-03T12:01:27.684Z,736.88
2019-04-03T12:02:27.724Z,731.25
2019-04-03T12:04:20.710Z,691.88
2019-04-03T12:05:21.554Z,731.25
2019-04-03T12:07:14.022Z,703.13
2019-04-03T12:08:13.810Z,630.00
2019-04-03T12:10:06.813Z,680.63
2019-04-03T12:11:07.455Z,770.63
2019-04-03T12:12:59.870Z,855.00
2019-04-03T12:13:59.912Z,855.00
2019-04-03T12:15:53.973Z,793.13
2019-04-03T12:16:52.950Z,753.75
2019-04-03T12:18:45.953Z,781.88
2019-04-03T12:19:46.180Z,804.38
2019-04-03T12:21:39.009Z,725.63
2019-04-03T12:22:39.052Z,658.13
2019-04-03T12:24:32.043Z,736.88
2019-04-03T12:25:34.189Z,765.00
2019-04-03T12:27:25.171Z,781.88
2019-04-03T12:28:25.150Z,680.63
2019-04-03T12:30:18.310Z,489.38
2019-04-03T12:31:18.181Z,483.75
2019-04-03T12:33:11.194Z,523.13
2019-04-03T12:34:11.207Z,500.63
2019-04-03T12:36:06.517Z,416.25
2019-04-03T12:37:04.255Z,388.13
2019-04-03T12:38:57.305Z,354.38
2019-04-03T12:39:58.215Z,286.88
2019-04-03T12:41:50.342Z,360.00
2019-04-03T12:42:50.341Z,450.00
2019-04-03T12:44:43.345Z,528.75
2019-04-03T12:45:43.696Z,545.63
2019-04-03T12:47:36.386Z,573.75
2019-04-03T12:48:36.425Z,528.75
2019-04-03T12:50:29.412Z,399.38
2019-04-03T12:51:31.554Z,348.75
2019-04-03T12:53:22.477Z,331.88
2019-04-03T12:54:22.514Z,365.63
2019-04-03T12:56:15.521Z,421.88
2019-04-03T12:57:15.689Z,450.00
2019-04-03T12:59:09.484Z,461.25
2019-04-03T13:00:10.579Z,455.63
2019-04-03T13:02:01.610Z,444.38
2019-04-03T13:03:01.648Z,461.25
2019-04-03T13:04:54.874Z,483.75
2019-04-03T13:05:54.998Z,466.88
2019-04-03T13:07:48.093Z,427.50
2019-04-03T13:08:47.739Z,433.13
2019-04-03T13:10:45.028Z,483.75
2019-04-03T13:11:40.846Z,500.63
2019-04-03T13:13:33.805Z,500.63
2019-04-03T13:14:33.834Z,495.00
2019-04-03T13:16:26.845Z,506.25
2019-04-03T13:17:26.876Z,511.88
2019-04-03T13:19:20.328Z,523.13
2019-04-03T13:20:20.226Z,523.13
2019-04-03T13:22:12.911Z,511.88
2019-04-03T13:23:14.361Z,495.00
2019-04-03T13:25:05.941Z,506.25
2019-04-03T13:26:06.435Z,545.63
2019-04-03T13:27:58.998Z,579.38
2019-04-03T13:28:59.087Z,585.00
2019-04-03T13:30:52.024Z,590.63
2019-04-03T13:31:52.083Z,596.25
2019-04-03T13:33:45.086Z,601.88
2019-04-03T13:34:45.124Z,613.13
2019-04-03T13:36:38.124Z,635.63
2019-04-03T13:37:38.182Z,635.63
2019-04-03T13:39:33.623Z,596.25
2019-04-03T13:40:31.227Z,556.88
2019-04-03T13:42:24.390Z,551.25
2019-04-03T13:43:24.587Z,534.38
2019-04-03T13:45:17.271Z,506.25
2019-04-03T13:46:17.575Z,517.50
2019-04-03T13:48:13.278Z,495.00
2019-04-03T13:49:10.415Z,483.75
2019-04-03T13:51:03.364Z,483.75
2019-04-03T13:52:07.707Z,489.38
2019-04-03T13:53:56.376Z,500.63
2019-04-03T13:54:58.216Z,483.75
2019-04-03T13:56:52.095Z,466.88
2019-04-03T13:57:50.846Z,478.13
2019-04-03T13:59:42.549Z,517.50
2019-04-03T14:00:42.531Z,534.38
2019-04-03T14:02:35.535Z,517.50
2019-04-03T14:03:35.589Z,528.75
2019-04-03T14:05:32.285Z,556.88
2019-04-03T14:06:28.802Z,568.13
2019-04-03T14:08:21.961Z,568.13
2019-04-03T14:09:21.726Z,528.75
2019-04-03T14:11:14.632Z,450.00
2019-04-03T14:12:16.927Z,433.13
2019-04-03T14:14:07.746Z,438.75
2019-04-03T14:15:07.747Z,472.50
2019-04-03T14:17:00.756Z,466.88
2019-04-03T14:18:00.780Z,438.75
2019-04-03T14:19:53.782Z,360.00
2019-04-03T14:20:55.332Z,320.63
2019-04-03T14:22:46.829Z,253.13
2019-04-03T14:23:46.872Z,241.88
2019-04-03T14:25:39.887Z,230.63
2019-04-03T14:26:39.914Z,236.25
2019-04-03T14:28:34.624Z,236.25
2019-04-03T14:29:32.955Z,230.63
2019-04-03T14:31:34.939Z,202.50
2019-04-03T14:32:26.489Z,191.25
2019-04-03T14:34:18.986Z,185.63
2019-04-03T14:35:44.338Z,180.00
2019-04-03T14:37:12.383Z,180.00
2019-04-03T14:38:12.426Z,191.25
2019-04-03T14:40:05.646Z,230.63
2019-04-03T14:41:05.245Z,236.25
2019-04-03T14:42:58.718Z,241.88
2019-04-03T14:43:58.691Z,247.50
2019-04-03T14:45:51.182Z,236.25
2019-04-03T14:46:51.727Z,236.25
2019-04-03T14:48:44.226Z,247.50
2019-04-03T14:49:44.257Z,258.75
2019-04-03T14:51:37.521Z,264.38
2019-04-03T14:52:37.321Z,258.75
2019-04-03T14:54:31.742Z,264.38
2019-04-03T14:55:30.992Z,270.00
2019-04-03T14:57:24.433Z,270.00
2019-04-03T14:58:26.917Z,270.00
2019-04-03T15:00:26.445Z,264.38
2019-04-03T15:01:19.049Z,253.13
2019-04-03T15:03:10.280Z,241.88
2019-04-03T15:04:09.971Z,253.13
2019-04-03T15:06:02.991Z,286.88
2019-04-03T15:07:08.040Z,320.63
2019-04-03T15:08:56.063Z,360.00
2019-04-03T15:09:57.214Z,360.00
2019-04-03T15:11:49.601Z,309.38
2019-04-03T15:12:49.927Z,281.25
2019-04-03T15:14:42.815Z,230.63
2019-04-03T15:15:42.646Z,202.50
2019-04-03T15:17:37.621Z,196.88
2019-04-03T15:18:35.688Z,208.13
2019-04-03T15:20:28.723Z,202.50
2019-04-03T15:21:28.734Z,225.00
2019-04-03T15:23:21.977Z,241.88
2019-04-03T15:24:21.771Z,253.13
2019-04-03T15:26:14.784Z,247.50
2019-04-03T15:27:14.904Z,236.25
2019-04-03T15:29:07.846Z,230.63
2019-04-03T15:30:09.963Z,230.63
2019-04-03T15:32:00.875Z,258.75
2019-04-03T15:33:01.365Z,253.13
2019-04-03T15:34:54.191Z,225.00
2019-04-03T15:35:54.180Z,202.50
2019-04-03T15:37:46.958Z,202.50
2019-04-03T15:38:47.564Z,236.25
2019-04-03T15:40:40.008Z,275.63
2019-04-03T15:41:40.265Z,275.63
2019-04-03T15:43:33.098Z,286.88
2019-04-03T15:44:33.158Z,303.75
2019-04-03T15:46:28.434Z,270.00
2019-04-03T15:47:35.199Z,258.75
2019-04-03T15:49:19.126Z,241.88
2019-04-03T15:50:19.187Z,241.88
2019-04-03T15:52:12.818Z,213.75
2019-04-03T15:53:12.540Z,196.88
2019-04-03T15:55:05.562Z,163.13
2019-04-03T15:56:05.742Z,140.63
2019-04-03T15:57:58.251Z,106.88
2019-04-03T15:58:59.194Z,106.88
2019-04-03T16:00:51.489Z,95.63
2019-04-03T16:01:51.533Z,90.00
2019-04-03T16:03:44.712Z,84.38
2019-04-03T16:04:44.650Z,78.75
2019-04-03T16:06:37.400Z,73.13
2019-04-03T16:07:40.447Z,78.75
2019-04-03T16:09:30.443Z,84.38
2019-04-03T16:10:30.475Z,84.38
2019-04-03T16:12:23.500Z,90.00
2019-04-03T16:13:24.266Z,90.00
2019-04-03T16:15:16.528Z,90.00
2019-04-03T16:16:16.564Z,84.38
2019-04-03T16:18:09.548Z,78.75
2019-04-03T16:19:11.382Z,78.75
2019-04-03T16:21:02.746Z,73.13
2019-04-03T16:22:02.774Z,73.13
2019-04-03T16:23:56.110Z,78.75
2019-04-03T16:24:57.071Z,78.75
2019-04-03T16:26:49.318Z,78.75
2019-04-03T16:27:49.015Z,73.13
2019-04-03T16:29:42.003Z,78.75
2019-04-03T16:30:41.899Z,84.38
2019-04-03T16:32:35.256Z,90.00
2019-04-03T16:33:35.728Z,95.63
2019-04-03T16:35:27.950Z,101.25
2019-04-03T16:36:28.155Z,101.25
2019-04-03T16:38:20.879Z,101.25
2019-04-03T16:39:21.022Z,106.88
2019-04-03T16:41:13.953Z,106.88
2019-04-03T16:42:14.149Z,101.25
2019-04-03T16:44:06.978Z,95.63
2019-04-03T16:45:08.450Z,95.63
2019-04-03T16:47:00.365Z,90.00
2019-04-03T16:48:00.891Z,90.00
2019-04-03T16:49:54.862Z,73.13
2019-04-03T16:50:53.363Z,73.13
2019-04-03T16:52:47.355Z,73.13
2019-04-03T16:53:47.179Z,67.50
2019-04-03T16:55:39.267Z,61.88
2019-04-03T16:56:39.574Z,61.88
2019-04-03T16:58:32.458Z,61.88
2019-04-03T16:59:35.236Z,61.88
2019-04-03T17:01:25.813Z,67.50
2019-04-03T17:02:26.301Z,67.50
2019-04-03T17:04:25.417Z,67.50
2019-04-03T17:05:18.500Z,67.50
2019-04-03T17:07:11.623Z,67.50
2019-04-03T17:08:11.377Z,67.50
2019-04-03T17:10:04.628Z,61.88
2019-04-03T17:11:04.515Z,61.88
2019-04-03T17:12:57.462Z,56.25
2019-04-03T17:13:58.084Z,50.63
2019-04-03T17:15:58.593Z,50.63
2019-04-03T17:16:50.871Z,45.00
2019-04-03T17:20:44.035Z,45.00
2019-04-03T17:21:43.874Z,45.00
2019-04-03T17:23:36.941Z,39.38
2019-04-03T17:24:43.500Z,39.38
2019-04-03T17:26:29.766Z,39.38
2019-04-03T17:27:30.712Z,33.75
2019-04-03T17:29:22.752Z,33.75
2019-04-03T17:30:22.776Z,28.13
2019-04-03T17:32:16.346Z,22.50
2019-04-03T17:33:16.002Z,22.50
2019-04-03T17:35:09.876Z,16.88
2019-04-03T17:36:09.400Z,16.88
2019-04-03T17:38:02.414Z,16.88
2019-04-03T17:39:04.552Z,16.88
2019-04-03T17:40:55.398Z,11.25
2019-04-03T17:41:55.417Z,11.25
2019-04-03T17:43:48.462Z,11.25
2019-04-03T17:44:48.810Z,11.25
2019-04-03T17:46:41.534Z,5.63
2019-04-03T17:47:41.579Z,5.63
2019-04-03T17:49:34.533Z,5.63
2019-04-03T17:50:34.671Z,5.63
2019-04-03T17:52:27.567Z,5.63
2019-04-03T17:53:27.619Z,0.00
2019-04-03T17:55:20.620Z,0.00
2019-04-03T17:56:20.658Z,0.00
2019-04-03T17:58:16.454Z,0.00
2019-04-03T17:59:13.696Z,0.00
2019-04-03T18:01:06.684Z,0.00
2019-04-03T18:02:06.736Z,0.00
2019-04-03T18:03:59.757Z,0.00
2019-04-03T18:04:59.801Z,0.00
2019-04-03T18:06:52.779Z,0.00
2019-04-03T18:07:52.844Z,0.00
2019-04-03T18:09:45.840Z,0.00
2019-04-03T18:10:45.874Z,0.00
2019-04-03T18:12:38.896Z,0.00
2019-04-03T18:13:38.926Z,0.00
2019-04-03T18:15:33.020Z,0.00
2019-04-03T18:16:32.262Z,0.00
2019-04-03T18:18:25.181Z,0.00
2019-04-03T18:21:31.830Z,0.00
2019-04-03T18:22:24.234Z,0.00
2019-04-03T18:25:30.961Z,0.00
2019-04-03T18:26:21.106Z,0.00
2019-04-03T18:28:17.225Z,0.00
2019-04-03T18:29:17.550Z,0.00
2019-04-03T18:31:11.823Z,0.00
2019-04-03T18:32:10.200Z,0.00